Time;durP1;ratioP1;P1;durP2;ratioP2;P2;SDS_P1;SDS_P2;PMS_P1;PMS_P2;Temp;Humidity;BMP_temperature;BMP_pressure;BME280_temperature;BME280_humidity;BME280_pressure;Samples;Min_cycle;Max_cycle;Signal;HPM_P1;HPM_P2
2022/08/19 00:01:25;;;;;;;6.57;5.88;;;;;;;;;;5013385;28;20050;-84
2022/08/19 00:03:51;;;;;;;6.50;5.70;;;;;;;;;;5011540;28;20046;-84
2022/08/19 00:06:17;;;;;;;6.68;6.05;;;;;;;;;;5011967;28;20038;-84
2022/08/19 00:08:43;;;;;;;7.18;5.75;;;;;;;;;;4998599;28;20046;-84
2022/08/19 00:11:09;;;;;;;6.25;5.65;;;;;;;;;;5012075;28;20084;-83
2022/08/19 00:13:36;;;;;;;6.22;5.63;;;;;;;;;;5001823;28;20043;-84
2022/08/19 00:16:02;;;;;;;6.70;5.97;;;;;;;;;;4997829;28;20124;-83
2022/08/19 00:18:29;;;;;;;7.47;5.70;;;;;;;;;;5014608;28;20461;-83
2022/08/19 00:20:55;;;;;;;6.75;6.05;;;;;;;;;;4991785;28;20577;-83
2022/08/19 00:23:21;;;;;;;6.07;5.57;;;;;;;;;;4994566;28;20111;-83
2022/08/19 00:25:47;;;;;;;7.72;6.13;;;;;;;;;;4993599;28;20046;-84
2022/08/19 00:28:13;;;;;;;7.30;5.90;;;;;;;;;;4996847;28;20049;-84
2022/08/19 00:30:39;;;;;;;6.70;6.10;;;;;;;;;;4990927;28;20043;-85
2022/08/19 00:33:05;;;;;;;6.55;5.95;;;;;;;;;;4995064;28;20050;-84
2022/08/19 00:35:31;;;;;;;7.22;6.45;;;;;;;;;;4991918;28;20392;-83
2022/08/19 00:37:58;;;;;;;7.45;6.75;;;;;;;;;;4989683;28;20057;-84
2022/08/19 00:40:24;;;;;;;8.15;7.35;;;;;;;;;;4999819;28;20078;-84
2022/08/19 00:42:53;;;;;;;8.95;6.70;;;;;;;;;;5007858;28;20054;-84
2022/08/19 00:45:21;;;;;;;9.50;6.75;;;;;;;;;;5003725;28;20129;-84
2022/08/19 00:47:47;;;;;;;7.32;6.63;;;;;;;;;;4998280;28;20038;-84
2022/08/19 00:50:15;;;;;;;8.00;7.00;;;;;;;;;;4999061;28;20046;-84
2022/08/19 00:52:44;;;;;;;7.70;6.63;;;;;;;;;;5002477;28;20042;-84
2022/08/19 00:55:12;;;;;;;12.90;7.00;;;;;;;;;;5011338;28;20140;-83
2022/08/19 00:57:42;;;;;;;7.40;6.63;;;;;;;;;;4994030;28;20116;-84
2022/08/19 01:00:11;;;;;;;7.72;6.80;;;;;;;;;;5003088;28;20042;-84
2022/08/19 01:02:38;;;;;;;7.15;6.45;;;;;;;;;;5002115;28;20065;-83
2022/08/19 01:05:06;;;;;;;7.57;6.88;;;;;;;;;;4990806;28;20042;-83
2022/08/19 01:07:33;;;;;;;8.13;6.90;;;;;;;;;;4979192;28;20047;-83
2022/08/19 01:10:00;;;;;;;9.00;6.75;;;;;;;;;;4992387;28;20526;-83
2022/08/19 01:12:26;;;;;;;7.25;6.45;;;;;;;;;;5003919;28;20116;-83
2022/08/19 01:14:52;;;;;;;6.90;6.22;;;;;;;;;;4996016;28;20487;-83
2022/08/19 01:17:19;;;;;;;7.80;7.00;;;;;;;;;;4994872;28;20099;-82
2022/08/19 01:19:46;;;;;;;10.63;7.47;;;;;;;;;;5001639;28;20367;-83
2022/08/19 01:22:15;;;;;;;7.85;7.15;;;;;;;;;;5006682;28;20397;-83
2022/08/19 01:24:41;;;;;;;7.63;6.90;;;;;;;;;;4994875;28;20080;-84
2022/08/19 01:27:07;;;;;;;8.63;7.13;;;;;;;;;;5005694;28;20096;-83
2022/08/19 01:29:34;;;;;;;10.02;6.97;;;;;;;;;;5004946;28;20069;-82
2022/08/19 01:32:01;;;;;;;8.52;7.60;;;;;;;;;;4995366;28;20379;-83
2022/08/19 01:34:27;;;;;;;9.25;7.47;;;;;;;;;;4979288;28;20047;-83
2022/08/19 01:36:53;;;;;;;8.30;7.50;;;;;;;;;;4988106;28;20495;-83
2022/08/19 01:39:21;;;;;;;9.32;7.20;;;;;;;;;;4990833;28;20058;-82
2022/08/19 01:41:51;;;;;;;9.05;7.18;;;;;;;;;;4990723;28;20482;-84
2022/08/19 01:44:20;;;;;;;8.18;6.85;;;;;;;;;;4992195;28;20058;-83
2022/08/19 01:46:47;;;;;;;8.20;6.95;;;;;;;;;;4983885;28;20365;-84
2022/08/19 01:49:13;;;;;;;7.78;6.38;;;;;;;;;;4988820;28;20042;-83
2022/08/19 01:51:39;;;;;;;8.48;6.90;;;;;;;;;;4998972;28;20133;-83
2022/08/19 01:54:05;;;;;;;8.02;7.22;;;;;;;;;;4997883;28;20129;-84
2022/08/19 01:56:31;;;;;;;9.43;7.53;;;;;;;;;;4989006;28;20125;-84
2022/08/19 01:59:00;;;;;;;8.30;7.47;;;;;;;;;;4971648;28;20066;-83
2022/08/19 02:01:26;;;;;;;7.68;6.97;;;;;;;;;;5000174;28;20046;-83
2022/08/19 02:03:55;;;;;;;7.72;6.93;;;;;;;;;;4984359;28;20053;-83
2022/08/19 02:06:21;;;;;;;8.20;7.00;;;;;;;;;;4977523;28;20122;-83
2022/08/19 02:08:48;;;;;;;7.93;7.13;;;;;;;;;;5001576;28;20153;-83
2022/08/19 02:11:22;;;;;;;8.05;7.13;;;;;;;;;;4996639;28;20053;-83
2022/08/19 02:13:49;;;;;;;8.13;7.30;;;;;;;;;;4993619;28;20054;-83
2022/08/19 02:16:15;;;;;;;10.32;7.10;;;;;;;;;;4990625;28;20050;-83
2022/08/19 02:18:41;;;;;;;7.25;6.55;;;;;;;;;;4993223;28;20047;-83
2022/08/19 02:21:07;;;;;;;7.32;6.60;;;;;;;;;;4989651;28;20420;-83
2022/08/19 02:23:33;;;;;;;7.38;6.50;;;;;;;;;;4986760;28;20062;-83
2022/08/19 02:25:59;;;;;;;8.00;7.05;;;;;;;;;;4995693;28;20050;-84
2022/08/19 02:28:25;;;;;;;9.32;6.93;;;;;;;;;;4996477;28;20053;-83
2022/08/19 02:30:51;;;;;;;8.13;6.07;;;;;;;;;;4988208;28;20079;-83
2022/08/19 02:33:17;;;;;;;8.88;7.30;;;;;;;;;;5002303;28;20041;-83
2022/08/19 02:35:44;;;;;;;7.30;6.60;;;;;;;;;;4973554;28;20050;-83
2022/08/19 02:38:25;;;;;;;8.70;7.25;;;;;;;;;;5003760;28;20141;-83
2022/08/19 02:40:52;;;;;;;8.02;6.97;;;;;;;;;;4984761;28;20051;-84
2022/08/19 02:43:20;;;;;;;8.77;7.03;;;;;;;;;;5007276;28;20147;-83
2022/08/19 02:45:47;;;;;;;8.35;7.30;;;;;;;;;;5006866;28;20042;-84
2022/08/19 02:48:14;;;;;;;8.45;7.18;;;;;;;;;;4995916;28;20446;-84
2022/08/19 02:50:40;;;;;;;8.18;7.28;;;;;;;;;;4985022;28;20053;-83
2022/08/19 02:53:08;;;;;;;10.63;7.40;;;;;;;;;;5007097;28;20255;-84
2022/08/19 02:55:34;;;;;;;7.13;6.43;;;;;;;;;;4988686;28;20046;-83
2022/08/19 02:58:00;;;;;;;8.90;7.07;;;;;;;;;;4996003;28;20050;-84
2022/08/19 03:00:26;;;;;;;9.23;7.30;;;;;;;;;;4982173;28;20537;-83
2022/08/19 03:02:53;;;;;;;8.57;6.75;;;;;;;;;;5008493;28;20077;-84
2022/08/19 03:05:19;;;;;;;9.60;7.05;;;;;;;;;;4996031;28;20124;-83
2022/08/19 03:07:46;;;;;;;10.23;7.00;;;;;;;;;;4999087;28;20046;-83
2022/08/19 03:10:12;;;;;;;8.07;7.22;;;;;;;;;;4999011;28;20392;-83
2022/08/19 03:12:39;;;;;;;9.02;7.20;;;;;;;;;;4992235;28;20417;-83
2022/08/19 03:15:07;;;;;;;9.15;7.28;;;;;;;;;;4984434;28;20054;-83
2022/08/19 03:17:33;;;;;;;8.68;7.13;;;;;;;;;;5000748;28;20132;-83
2022/08/19 03:19:59;;;;;;;9.40;7.63;;;;;;;;;;4999175;28;20073;-83
2022/08/19 03:22:25;;;;;;;8.85;7.70;;;;;;;;;;4980382;28;20060;-83
2022/08/19 03:24:51;;;;;;;8.23;7.43;;;;;;;;;;5008683;28;20379;-83
2022/08/19 03:27:17;;;;;;;8.20;7.25;;;;;;;;;;4986690;28;20073;-83
2022/08/19 03:29:43;;;;;;;8.73;7.75;;;;;;;;;;5002265;28;20049;-84
2022/08/19 03:32:10;;;;;;;11.27;7.95;;;;;;;;;;5005772;28;20502;-83
2022/08/19 03:34:37;;;;;;;9.02;8.13;;;;;;;;;;5007179;28;20074;-83
2022/08/19 03:37:05;;;;;;;10.18;8.85;;;;;;;;;;5014448;28;20050;-83
2022/08/19 03:39:31;;;;;;;9.13;8.18;;;;;;;;;;4996609;28;20516;-83
2022/08/19 03:41:59;;;;;;;9.23;8.02;;;;;;;;;;4993366;28;20418;-83
2022/08/19 03:44:25;;;;;;;9.30;8.30;;;;;;;;;;5009916;28;20046;-83
2022/08/19 03:46:52;;;;;;;10.02;8.35;;;;;;;;;;4987018;28;20383;-84
2022/08/19 03:49:19;;;;;;;11.55;8.88;;;;;;;;;;5007392;28;20521;-84
2022/08/19 03:51:45;;;;;;;11.50;8.38;;;;;;;;;;5012303;28;20046;-84
2022/08/19 03:54:12;;;;;;;11.57;9.00;;;;;;;;;;4994761;28;20086;-84
2022/08/19 03:56:39;;;;;;;12.25;8.55;;;;;;;;;;5002428;28;20050;-83
2022/08/19 03:59:06;;;;;;;11.93;8.50;;;;;;;;;;4991846;28;20082;-83
2022/08/19 04:01:32;;;;;;;9.90;8.90;;;;;;;;;;5001553;28;20115;-83
2022/08/19 04:03:59;;;;;;;10.20;8.50;;;;;;;;;;5013015;28;20057;-83
2022/08/19 04:06:30;;;;;;;11.48;8.93;;;;;;;;;;4998266;28;20174;-83
2022/08/19 04:08:57;;;;;;;12.45;9.27;;;;;;;;;;4995320;28;20046;-83
2022/08/19 04:11:25;;;;;;;9.80;8.80;;;;;;;;;;4994828;28;20117;-83
2022/08/19 04:13:52;;;;;;;10.45;9.32;;;;;;;;;;4998047;28;20122;-82
2022/08/19 04:16:19;;;;;;;10.50;9.25;;;;;;;;;;4999283;28;20038;-82
2022/08/19 04:18:46;;;;;;;12.13;9.02;;;;;;;;;;4989377;28;20050;-82
2022/08/19 04:21:16;;;;;;;9.63;8.63;;;;;;;;;;4993437;28;20041;-83
2022/08/19 04:23:42;;;;;;;11.50;8.30;;;;;;;;;;5003828;28;20575;-82
2022/08/19 04:26:12;;;;;;;11.52;9.30;;;;;;;;;;5012701;28;20093;-82
2022/08/19 04:28:39;;;;;;;11.10;8.93;;;;;;;;;;5005624;28;20068;-83
2022/08/19 04:31:05;;;;;;;11.63;8.98;;;;;;;;;;4998657;28;20034;-82
2022/08/19 04:33:31;;;;;;;11.82;9.50;;;;;;;;;;4996864;28;20050;-82
2022/08/19 04:35:58;;;;;;;11.43;8.95;;;;;;;;;;4991939;28;20395;-83
2022/08/19 04:38:24;;;;;;;12.48;9.27;;;;;;;;;;5005646;28;20108;-82
2022/08/19 04:43:38;;;;;;;10.60;9.23;;;;;;;;;;4990729;28;20050;-83
2022/08/19 04:46:08;;;;;;;10.35;9.25;;;;;;;;;;4999479;28;20057;-83
2022/08/19 04:48:35;;;;;;;10.32;9.32;;;;;;;;;;4984859;28;20050;-82
2022/08/19 04:51:01;;;;;;;12.30;9.68;;;;;;;;;;5006175;28;20049;-83
2022/08/19 04:53:31;;;;;;;10.27;9.20;;;;;;;;;;4988141;28;20483;-83
2022/08/19 04:55:57;;;;;;;10.45;9.30;;;;;;;;;;5013871;28;20501;-82
2022/08/19 04:58:24;;;;;;;10.00;9.00;;;;;;;;;;5010388;28;20053;-83
2022/08/19 05:00:50;;;;;;;12.43;8.82;;;;;;;;;;4995416;28;20085;-84
2022/08/19 05:03:16;;;;;;;9.15;8.18;;;;;;;;;;4990995;28;20062;-82
2022/08/19 05:05:48;;;;;;;10.27;9.18;;;;;;;;;;4982996;28;20486;-83
2022/08/19 05:08:19;;;;;;;11.20;9.10;;;;;;;;;;4994447;28;20038;-83
2022/08/19 05:10:46;;;;;;;11.13;8.77;;;;;;;;;;4990646;28;20133;-83
2022/08/19 05:13:12;;;;;;;10.50;8.88;;;;;;;;;;4979195;28;20043;-82
2022/08/19 05:15:38;;;;;;;10.35;8.68;;;;;;;;;;4986686;28;20398;-83
2022/08/19 05:23:33;;;;;;;11.63;9.30;;;;;;;;;;4990502;28;20086;-83
2022/08/19 05:25:59;;;;;;;10.10;9.10;;;;;;;;;;4990021;28;20104;-82
2022/08/19 05:28:27;;;;;;;9.82;8.82;;;;;;;;;;4985329;28;20056;-83
2022/08/19 05:30:55;;;;;;;11.95;10.75;;;;;;;;;;4986643;28;20058;-82
2022/08/19 05:33:21;;;;;;;9.68;8.73;;;;;;;;;;4981708;28;20130;-82
2022/08/19 05:35:49;;;;;;;10.65;8.90;;;;;;;;;;4997455;28;20181;-82
2022/08/19 05:38:15;;;;;;;11.02;9.20;;;;;;;;;;5006063;28;20569;-82
2022/08/19 05:40:42;;;;;;;12.38;9.25;;;;;;;;;;4994834;28;20054;-83
2022/08/19 05:43:08;;;;;;;9.57;8.43;;;;;;;;;;4992196;28;20495;-82
2022/08/19 05:45:38;;;;;;;9.82;8.82;;;;;;;;;;5005451;28;20049;-83
2022/08/19 05:48:04;;;;;;;10.25;9.20;;;;;;;;;;4989348;28;20129;-82
2022/08/19 05:50:31;;;;;;;9.73;8.75;;;;;;;;;;4994913;28;20081;-82
2022/08/19 05:52:57;;;;;;;9.55;8.63;;;;;;;;;;4988104;28;20046;-82
2022/08/19 05:55:23;;;;;;;10.50;9.40;;;;;;;;;;4985153;28;20043;-82
2022/08/19 05:57:49;;;;;;;10.75;9.25;;;;;;;;;;4988156;28;20096;-82
2022/08/19 06:00:15;;;;;;;10.40;9.02;;;;;;;;;;4981527;28;20130;-82
2022/08/19 06:02:42;;;;;;;10.27;9.18;;;;;;;;;;5002765;28;20053;-82
2022/08/19 06:05:08;;;;;;;10.18;9.18;;;;;;;;;;4995890;28;20046;-82
2022/08/19 06:07:35;;;;;;;11.27;10.18;;;;;;;;;;4982982;28;20054;-82
2022/08/19 06:10:01;;;;;;;12.30;10.98;;;;;;;;;;4991526;28;20050;-82
2022/08/19 06:12:34;;;;;;;11.50;10.20;;;;;;;;;;4991646;28;20176;-82
2022/08/19 06:15:00;;;;;;;;;;;;;;;;;;4991003;28;20375;-82
2022/08/19 06:17:26;;;;;;;12.55;10.13;;;;;;;;;;4987778;28;19933;-81
2022/08/19 06:19:52;;;;;;;13.15;10.80;;;;;;;;;;5000004;28;20042;-82
2022/08/19 06:22:18;;;;;;;11.85;10.48;;;;;;;;;;4977746;28;20057;-81
2022/08/19 06:24:44;;;;;;;13.13;11.60;;;;;;;;;;5001899;28;20061;-82
2022/08/19 06:27:10;;;;;;;11.77;10.57;;;;;;;;;;4999434;28;20486;-82
2022/08/19 06:29:36;;;;;;;12.85;10.82;;;;;;;;;;4994605;28;20058;-82
2022/08/19 06:32:03;;;;;;;13.52;12.15;;;;;;;;;;5000917;28;20038;-81
2022/08/19 06:34:30;;;;;;;13.07;11.82;;;;;;;;;;4995559;28;20046;-82
2022/08/19 06:36:59;;;;;;;14.07;12.45;;;;;;;;;;4991568;28;20573;-82
2022/08/19 06:39:26;;;;;;;15.43;13.82;;;;;;;;;;5006685;28;20372;-81
2022/08/19 06:41:53;;;;;;;16.27;14.25;;;;;;;;;;5000859;28;20057;-82
2022/08/19 06:44:20;;;;;;;16.42;14.73;;;;;;;;;;4987300;28;20052;-82
2022/08/19 06:46:46;;;;;;;16.88;15.00;;;;;;;;;;4993286;28;20086;-82
2022/08/19 06:49:13;;;;;;;17.15;15.35;;;;;;;;;;4994191;28;20095;-81
2022/08/19 06:51:43;;;;;;;16.83;15.02;;;;;;;;;;5009117;28;20050;-81
2022/08/19 06:54:09;;;;;;;17.08;15.27;;;;;;;;;;4990429;28;20078;-81
2022/08/19 06:56:35;;;;;;;18.40;16.27;;;;;;;;;;4988535;28;20101;-81
2022/08/19 06:59:07;;;;;;;17.27;15.63;;;;;;;;;;4980927;28;20050;-81
2022/08/19 07:01:37;;;;;;;16.98;15.18;;;;;;;;;;4979893;28;20125;-81
2022/08/19 07:04:04;;;;;;;17.25;15.20;;;;;;;;;;4996404;28;20130;-83
2022/08/19 07:06:30;;;;;;;17.25;15.45;;;;;;;;;;4991976;28;20046;-82
2022/08/19 07:08:58;;;;;;;19.23;16.35;;;;;;;;;;4997709;28;20134;-81
2022/08/19 07:11:24;;;;;;;18.50;16.52;;;;;;;;;;4989683;28;20042;-81
2022/08/19 07:13:50;;;;;;;17.75;15.88;;;;;;;;;;4994815;28;20049;-81
2022/08/19 07:16:21;;;;;;;18.52;15.90;;;;;;;;;;4990400;28;20415;-81
2022/08/19 07:18:48;;;;;;;17.52;15.73;;;;;;;;;;4975565;28;20047;-81
2022/08/19 07:21:22;;;;;;;17.58;15.70;;;;;;;;;;5006777;28;20494;-81
2022/08/19 07:23:49;;;;;;;18.92;16.80;;;;;;;;;;4999433;28;20407;-81
2022/08/19 07:26:15;;;;;;;19.98;18.13;;;;;;;;;;5002973;28;20062;-81
2022/08/19 07:28:42;;;;;;;19.42;16.70;;;;;;;;;;5000885;28;20050;-82
2022/08/19 07:31:10;;;;;;;19.50;17.38;;;;;;;;;;4995989;28;20072;-82
2022/08/19 07:33:36;;;;;;;21.30;19.02;;;;;;;;;;4999867;28;20430;-80
2022/08/19 07:36:11;;;;;;;20.58;18.33;;;;;;;;;;4999871;28;20442;-82
2022/08/19 07:38:38;;;;;;;19.30;17.08;;;;;;;;;;4983685;28;20054;-81
2022/08/19 07:41:05;;;;;;;21.95;18.23;;;;;;;;;;4991095;28;20122;-81
2022/08/19 07:43:31;;;;;;;18.55;16.38;;;;;;;;;;4988927;28;20508;-81
2022/08/19 07:45:57;;;;;;;18.38;16.40;;;;;;;;;;4995613;28;20453;-82
2022/08/19 07:48:27;;;;;;;19.17;16.90;;;;;;;;;;5003690;28;20483;-81
2022/08/19 07:50:54;;;;;;;20.63;16.60;;;;;;;;;;4996251;28;20065;-81
2022/08/19 07:53:21;;;;;;;19.60;16.02;;;;;;;;;;5010287;28;20046;-81
2022/08/19 07:55:47;;;;;;;18.50;15.95;;;;;;;;;;4991963;28;20050;-80
2022/08/19 07:58:14;;;;;;;18.67;15.35;;;;;;;;;;4996757;28;20084;-81
2022/08/19 08:00:40;;;;;;;18.52;15.00;;;;;;;;;;5000501;28;20046;-83
2022/08/19 08:03:08;;;;;;;15.80;14.02;;;;;;;;;;5001124;28;20037;-82
2022/08/19 08:11:13;;;;;;;15.18;13.45;;;;;;;;;;4997021;28;20133;-80
2022/08/19 08:13:40;;;;;;;16.45;13.30;;;;;;;;;;4988517;28;20253;-80
2022/08/19 08:16:07;;;;;;;21.00;14.70;;;;;;;;;;4998994;28;20375;-80
2022/08/19 08:18:41;;;;;;;15.68;13.45;;;;;;;;;;4989636;28;20071;-82
2022/08/19 08:21:07;;;;;;;19.55;14.40;;;;;;;;;;4985215;28;20061;-82
2022/08/19 08:23:33;;;;;;;20.30;12.55;;;;;;;;;;4996653;28;20813;-78
2022/08/19 08:26:01;;;;;;;18.50;12.48;;;;;;;;;;4984330;28;20062;-80
2022/08/19 08:28:28;;;;;;;14.90;11.43;;;;;;;;;;5021614;28;20047;-81
2022/08/19 08:30:54;;;;;;;17.00;12.65;;;;;;;;;;4993849;28;20065;-80
2022/08/19 08:33:21;;;;;;;15.70;11.20;;;;;;;;;;4994064;28;20087;-81
2022/08/19 08:35:47;;;;;;;18.73;12.20;;;;;;;;;;5002401;28;20126;-84
2022/08/19 08:38:14;;;;;;;14.82;11.90;;;;;;;;;;4979647;28;20486;-82
2022/08/19 08:40:45;;;;;;;16.10;11.93;;;;;;;;;;4986421;28;20147;-79
2022/08/19 08:43:21;;;;;;;19.10;13.27;;;;;;;;;;4996785;28;20064;-79
2022/08/19 08:45:50;;;;;;;18.08;12.70;;;;;;;;;;5000294;28;20053;-84
2022/08/19 08:48:44;;;;;;;16.33;12.93;;;;;;;;;;4994137;28;20054;-79
2022/08/19 08:51:14;;;;;;;16.48;11.95;;;;;;;;;;4983976;28;20513;-83
2022/08/19 08:53:44;;;;;;;15.13;12.15;;;;;;;;;;4995353;28;20048;-80
2022/08/19 08:56:12;;;;;;;17.80;13.82;;;;;;;;;;4993271;28;20042;-79
2022/08/19 08:58:55;;;;;;;16.15;11.68;;;;;;;;;;4984472;28;20054;-81
2022/08/19 09:01:22;;;;;;;15.80;10.43;;;;;;;;;;4983219;28;20549;-81
2022/08/19 09:03:48;;;;;;;16.95;9.73;;;;;;;;;;4982226;28;20445;-83
2022/08/19 09:06:35;;;;;;;12.48;9.40;;;;;;;;;;4997913;28;20046;-82
2022/08/19 09:09:04;;;;;;;11.80;9.50;;;;;;;;;;4990706;28;20425;-82
2022/08/19 09:11:42;;;;;;;11.40;9.32;;;;;;;;;;4991683;28;20142;-83
2022/08/19 09:14:17;;;;;;;14.65;10.65;;;;;;;;;;4992693;28;20516;-82
2022/08/19 09:16:43;;;;;;;13.43;10.15;;;;;;;;;;4997313;28;20049;-82
2022/08/19 09:19:10;;;;;;;13.80;10.63;;;;;;;;;;4994054;28;20122;-82
2022/08/19 09:21:38;;;;;;;13.02;9.63;;;;;;;;;;4996090;28;20057;-85
2022/08/19 09:24:04;;;;;;;16.42;10.80;;;;;;;;;;4996201;28;20088;-80
2022/08/19 09:26:32;;;;;;;11.45;10.25;;;;;;;;;;5001481;28;20479;-82
2022/08/19 09:28:59;;;;;;;14.93;10.20;;;;;;;;;;4995258;28;20128;-82
2022/08/19 09:31:26;;;;;;;13.05;9.30;;;;;;;;;;4996470;28;20050;-81
2022/08/19 09:33:52;;;;;;;15.88;10.45;;;;;;;;;;5002409;28;20077;-85
2022/08/19 09:36:22;;;;;;;13.73;10.90;;;;;;;;;;5001702;28;20038;-81
2022/08/19 09:38:48;;;;;;;15.23;10.43;;;;;;;;;;4984954;28;20384;-82
2022/08/19 09:41:15;;;;;;;13.15;9.75;;;;;;;;;;4983563;28;20487;-82
2022/08/19 09:43:42;;;;;;;13.85;9.10;;;;;;;;;;4993502;28;20050;-83
2022/08/19 09:46:09;;;;;;;10.45;7.85;;;;;;;;;;4995909;28;20481;-82
2022/08/19 09:48:36;;;;;;;13.00;7.47;;;;;;;;;;5005992;28;20096;-80
2022/08/19 09:51:15;;;;;;;12.23;7.65;;;;;;;;;;4997970;28;20490;-83
2022/08/19 09:53:41;;;;;;;12.20;7.93;;;;;;;;;;4994418;28;20128;-83
2022/08/19 09:56:07;;;;;;;8.95;8.05;;;;;;;;;;4990522;28;20053;-84
2022/08/19 09:58:34;;;;;;;11.82;7.05;;;;;;;;;;5001841;28;20053;-83
2022/08/19 10:01:01;;;;;;;11.75;7.18;;;;;;;;;;4988799;28;20057;-82
2022/08/19 10:03:27;;;;;;;11.27;7.75;;;;;;;;;;4988967;28;20054;-80
2022/08/19 10:05:53;;;;;;;9.73;7.50;;;;;;;;;;4986786;28;20048;-81
2022/08/19 10:08:27;;;;;;;9.65;7.68;;;;;;;;;;4995407;28;20482;-81
2022/08/19 10:10:54;;;;;;;9.50;7.78;;;;;;;;;;4998353;28;20077;-81
2022/08/19 10:13:23;;;;;;;11.88;9.07;;;;;;;;;;5000923;28;20551;-84
2022/08/19 10:15:52;;;;;;;9.60;7.55;;;;;;;;;;4991473;28;20092;-83
2022/08/19 10:18:19;;;;;;;9.73;6.85;;;;;;;;;;4990772;28;20125;-82
2022/08/19 10:20:46;;;;;;;10.80;8.18;;;;;;;;;;4986402;28;20049;-82
2022/08/19 10:23:13;;;;;;;9.77;7.60;;;;;;;;;;4977611;28;20133;-81
2022/08/19 10:25:39;;;;;;;12.32;7.70;;;;;;;;;;4977391;28;20092;-81
2022/08/19 10:28:08;;;;;;;9.98;7.25;;;;;;;;;;4996988;28;20068;-84
2022/08/19 10:30:36;;;;;;;9.95;6.55;;;;;;;;;;4978144;28;20080;-83
2022/08/19 10:33:02;;;;;;;10.10;7.68;;;;;;;;;;4979819;28;20677;-83
2022/08/19 10:35:29;;;;;;;9.55;8.18;;;;;;;;;;5007009;28;20064;-83
2022/08/19 10:37:58;;;;;;;12.10;8.68;;;;;;;;;;4997913;28;20560;-80
2022/08/19 10:40:25;;;;;;;8.93;7.30;;;;;;;;;;4974750;28;20450;-82
2022/08/19 10:42:51;;;;;;;10.32;7.82;;;;;;;;;;4977536;28;20054;-79
2022/08/19 10:45:17;;;;;;;10.13;7.55;;;;;;;;;;4977244;28;20043;-82
2022/08/19 10:47:43;;;;;;;11.63;7.05;;;;;;;;;;4988200;28;20108;-81
2022/08/19 10:52:54;;;;;;;9.73;7.30;;;;;;;;;;4991551;28;20042;-82
2022/08/19 10:58:13;;;;;;;8.32;7.28;;;;;;;;;;5007346;28;20046;-82
2022/08/19 11:00:43;;;;;;;11.60;7.90;;;;;;;;;;4987263;28;20077;-82
2022/08/19 11:03:09;;;;;;;10.45;7.80;;;;;;;;;;4976009;28;20046;-84
2022/08/19 11:05:37;;;;;;;11.50;7.20;;;;;;;;;;4974554;28;20047;-82
2022/08/19 11:08:03;;;;;;;11.00;7.75;;;;;;;;;;4988668;28;20053;-82
2022/08/19 11:10:29;;;;;;;12.27;7.72;;;;;;;;;;4988488;28;20514;-77
2022/08/19 11:12:55;;;;;;;11.93;7.13;;;;;;;;;;4993273;28;20095;-76
2022/08/19 11:15:21;;;;;;;9.80;7.43;;;;;;;;;;4976426;28;20054;-79
2022/08/19 11:17:47;;;;;;;9.02;7.00;;;;;;;;;;4974649;28;20106;-78
2022/08/19 11:20:14;;;;;;;8.20;6.47;;;;;;;;;;4985834;28;20622;-79
2022/08/19 11:22:41;;;;;;;8.48;6.53;;;;;;;;;;4979560;28;20047;-81
2022/08/19 11:25:08;;;;;;;11.70;7.38;;;;;;;;;;4983617;28;20054;-78
2022/08/19 11:27:34;;;;;;;7.68;6.85;;;;;;;;;;4991525;28;20105;-78
2022/08/19 11:30:00;;;;;;;7.57;6.72;;;;;;;;;;4993497;28;20494;-78
2022/08/19 11:32:26;;;;;;;10.18;7.25;;;;;;;;;;4990032;28;20129;-78
2022/08/19 11:34:52;;;;;;;8.25;6.68;;;;;;;;;;4984194;28;20051;-77
2022/08/19 11:37:18;;;;;;;11.43;6.85;;;;;;;;;;4975700;28;20097;-78
2022/08/19 11:39:44;;;;;;;7.68;6.03;;;;;;;;;;4979960;28;20042;-77
2022/08/19 11:44:58;;;;;;;9.48;6.15;;;;;;;;;;4974652;28;20046;-79
2022/08/19 11:47:24;;;;;;;9.25;7.18;;;;;;;;;;4985477;28;20050;-79
2022/08/19 11:49:50;;;;;;;9.70;6.97;;;;;;;;;;4982538;28;20050;-79
2022/08/19 11:52:16;;;;;;;9.18;6.60;;;;;;;;;;4988059;28;20101;-79
2022/08/19 11:54:42;;;;;;;9.48;6.93;;;;;;;;;;4988029;28;20058;-79
2022/08/19 11:57:08;;;;;;;8.23;6.57;;;;;;;;;;4979314;28;20487;-79
2022/08/19 11:59:34;;;;;;;7.50;6.68;;;;;;;;;;4975322;28;20058;-78
2022/08/19 12:02:00;;;;;;;8.07;5.90;;;;;;;;;;4974198;28;20066;-79
2022/08/19 12:04:26;;;;;;;9.25;6.20;;;;;;;;;;4977657;28;20134;-79
2022/08/19 12:06:52;;;;;;;7.93;6.05;;;;;;;;;;4972713;28;20049;-79
2022/08/19 12:09:18;;;;;;;7.28;6.20;;;;;;;;;;4991989;28;20506;-78
2022/08/19 12:11:45;;;;;;;8.57;6.43;;;;;;;;;;4988426;28;20122;-79
2022/08/19 12:14:13;;;;;;;9.07;5.82;;;;;;;;;;4974759;28;20510;-79
2022/08/19 12:16:41;;;;;;;8.40;6.45;;;;;;;;;;4974602;28;20557;-80
2022/08/19 12:19:07;;;;;;;7.00;6.30;;;;;;;;;;4979831;28;20050;-79
2022/08/19 12:21:34;;;;;;;7.45;6.65;;;;;;;;;;4992150;28;20046;-78
2022/08/19 12:24:01;;;;;;;8.55;7.68;;;;;;;;;;4979371;28;20047;-79
2022/08/19 12:26:28;;;;;;;9.77;6.57;;;;;;;;;;4982086;28;20137;-79
2022/08/19 12:28:54;;;;;;;7.28;6.50;;;;;;;;;;4979122;28;20178;-78
2022/08/19 12:31:20;;;;;;;8.40;7.20;;;;;;;;;;4973291;28;20395;-78
2022/08/19 12:33:47;;;;;;;7.18;6.47;;;;;;;;;;4976537;28;20050;-79
2022/08/19 12:36:15;;;;;;;8.75;6.00;;;;;;;;;;4987498;28;20060;-78
2022/08/19 12:38:41;;;;;;;7.88;6.53;;;;;;;;;;4987099;28;20058;-83
2022/08/19 12:41:10;;;;;;;8.23;7.07;;;;;;;;;;4977347;28;20489;-78
2022/08/19 12:43:37;;;;;;;8.57;6.55;;;;;;;;;;4981573;28;20101;-82
2022/08/19 12:46:04;;;;;;;8.13;6.95;;;;;;;;;;4974613;28;20054;-82
2022/08/19 12:48:30;;;;;;;8.27;6.90;;;;;;;;;;4974273;28;20050;-82
2022/08/19 12:50:56;;;;;;;7.30;6.57;;;;;;;;;;4973481;28;20072;-84
2022/08/19 12:53:22;;;;;;;8.23;6.80;;;;;;;;;;4971939;28;20038;-82
2022/08/19 12:55:48;;;;;;;8.30;6.90;;;;;;;;;;4971789;28;20394;-83
2022/08/19 12:58:14;;;;;;;7.93;7.07;;;;;;;;;;4977202;28;20047;-83
2022/08/19 13:00:40;;;;;;;8.85;7.50;;;;;;;;;;4984372;28;20138;-84
2022/08/19 13:03:06;;;;;;;7.38;6.68;;;;;;;;;;4984927;28;20046;-84
2022/08/19 13:05:33;;;;;;;7.68;6.65;;;;;;;;;;4999993;28;20054;-85
2022/08/19 13:08:00;;;;;;;8.13;6.45;;;;;;;;;;4998816;28;20046;-84
2022/08/19 13:10:28;;;;;;;8.30;6.28;;;;;;;;;;4992433;28;20104;-82
2022/08/19 13:12:55;;;;;;;7.60;6.80;;;;;;;;;;4987426;28;20042;-86
2022/08/19 13:15:21;;;;;;;9.65;6.03;;;;;;;;;;4975315;28;20047;-82
2022/08/19 13:17:48;;;;;;;10.00;6.18;;;;;;;;;;4980993;28;20050;-84
2022/08/19 13:20:15;;;;;;;6.38;5.78;;;;;;;;;;4985582;28;20042;-83
2022/08/19 13:22:42;;;;;;;6.43;5.70;;;;;;;;;;4983693;28;20186;-85
2022/08/19 13:25:08;;;;;;;7.35;6.15;;;;;;;;;;5000448;28;20062;-84
2022/08/19 13:27:35;;;;;;;8.60;5.65;;;;;;;;;;4990690;28;20570;-84
2022/08/19 13:35:31;;;;;;;9.57;6.22;;;;;;;;;;4994080;28;20082;-85
2022/08/19 13:37:57;;;;;;;7.15;5.68;;;;;;;;;;4984827;28;20137;-85
2022/08/19 13:40:25;;;;;;;7.43;6.03;;;;;;;;;;4988673;28;20070;-85
2022/08/19 13:42:53;;;;;;;5.13;4.63;;;;;;;;;;4993506;28;20106;-85
2022/08/19 13:45:20;;;;;;;9.02;6.25;;;;;;;;;;4988537;28;20151;-83
2022/08/19 13:47:47;;;;;;;5.88;5.32;;;;;;;;;;4987473;28;20051;-85
2022/08/19 13:50:15;;;;;;;8.77;4.60;;;;;;;;;;4980618;28;20046;-85
2022/08/19 13:52:41;;;;;;;5.43;4.53;;;;;;;;;;4978518;28;20047;-84
2022/08/19 13:55:09;;;;;;;4.95;4.35;;;;;;;;;;4982461;28;20042;-83
2022/08/19 13:57:35;;;;;;;4.82;3.65;;;;;;;;;;4995646;28;20581;-84
2022/08/19 14:00:03;;;;;;;4.80;4.10;;;;;;;;;;4989350;28;20038;-84
2022/08/19 14:02:29;;;;;;;6.70;4.53;;;;;;;;;;4998828;28;20045;-84
2022/08/19 14:04:55;;;;;;;6.05;4.82;;;;;;;;;;4996460;28;20077;-84
2022/08/19 14:07:23;;;;;;;6.38;4.40;;;;;;;;;;4977054;28;20409;-82
2022/08/19 14:09:49;;;;;;;6.00;4.40;;;;;;;;;;4999737;28;20065;-83
2022/08/19 14:12:18;;;;;;;4.80;4.40;;;;;;;;;;4980859;28;20038;-81
2022/08/19 14:14:44;;;;;;;4.65;3.88;;;;;;;;;;4979663;28;20064;-82
2022/08/19 14:17:10;;;;;;;6.07;4.30;;;;;;;;;;4990981;28;20487;-82
2022/08/19 14:19:36;;;;;;;5.00;4.25;;;;;;;;;;4979569;28;20090;-87
2022/08/19 14:22:02;;;;;;;4.72;4.20;;;;;;;;;;4991672;28;20505;-89
2022/08/19 14:24:28;;;;;;;6.10;4.60;;;;;;;;;;4988005;28;20081;-81
2022/08/19 14:26:54;;;;;;;4.70;4.28;;;;;;;;;;4979222;28;20474;-79
2022/08/19 14:29:20;;;;;;;3.70;3.22;;;;;;;;;;4990347;28;20076;-80
2022/08/19 14:31:46;;;;;;;4.38;3.15;;;;;;;;;;4991535;28;20044;-82
2022/08/19 14:34:12;;;;;;;3.22;2.75;;;;;;;;;;4988788;28;20045;-85
2022/08/19 14:36:57;;;;;;;2.53;2.33;;;;;;;;;;4996987;28;20098;-85
2022/08/19 14:39:23;;;;;;;3.25;2.80;;;;;;;;;;4962821;28;20042;-84
2022/08/19 14:41:49;;;;;;;2.40;2.00;;;;;;;;;;4998113;28;20057;-87
2022/08/19 14:44:16;;;;;;;2.10;1.90;;;;;;;;;;4998638;28;20050;-85
2022/08/19 14:46:44;;;;;;;2.88;1.77;;;;;;;;;;4997662;28;20054;-86
2022/08/19 14:49:10;;;;;;;1.88;1.77;;;;;;;;;;4977514;28;20422;-85
2022/08/19 14:51:38;;;;;;;2.28;1.90;;;;;;;;;;4986995;28;20042;-84
2022/08/19 14:54:07;;;;;;;2.10;1.80;;;;;;;;;;4975070;28;20043;-85
2022/08/19 14:56:33;;;;;;;3.65;1.50;;;;;;;;;;4984799;28;20402;-87
2022/08/19 14:59:00;;;;;;;1.70;1.60;;;;;;;;;;4979846;28;20047;-84
2022/08/19 15:01:27;;;;;;;1.80;1.70;;;;;;;;;;4990107;28;20054;-84